createdAt,value
2022-11-28T00:01:25.201Z,-0.28
2022-11-28T00:03:51.850Z,-0.30
2022-11-28T00:06:18.972Z,-0.30
2022-11-28T00:08:46.347Z,-0.40
2022-11-28T00:11:15.786Z,-0.30
2022-11-28T00:13:43.387Z,-0.30
2022-11-28T00:16:16.004Z,-0.20
2022-11-28T00:18:42.539Z,-0.20
2022-11-28T00:21:13.759Z,-0.10
2022-11-28T00:23:41.924Z,-0.10
2022-11-28T00:26:15.422Z,-0.10
2022-11-28T00:28:42.520Z,-0.06
2022-11-28T00:31:26.898Z,-0.02
2022-11-28T00:33:54.500Z,-0.04
2022-11-28T00:36:21.997Z,-0.10
2022-11-28T00:38:49.397Z,-0.10
2022-11-28T00:41:20.956Z,-0.10
2022-11-28T00:43:48.963Z,-0.10
2022-11-28T00:46:17.316Z,-0.10
2022-11-28T00:48:44.546Z,-0.10
2022-11-28T00:51:16.492Z,-0.02
2022-11-28T00:53:45.075Z,0.00
2022-11-28T00:56:15.354Z,0.00
2022-11-28T00:58:43.104Z,-0.02
2022-11-28T01:01:27.712Z,-0.10
2022-11-28T01:03:57.410Z,-0.10
2022-11-28T01:06:33.639Z,-0.20
2022-11-28T01:09:05.564Z,-0.20
2022-11-28T01:11:32.300Z,-0.30
2022-11-28T01:14:01.124Z,-0.40
2022-11-28T01:16:29.489Z,-0.40
2022-11-28T01:18:56.328Z,-0.48
2022-11-28T01:21:23.648Z,-0.48
2022-11-28T01:23:50.422Z,-0.50
2022-11-28T01:26:21.690Z,-0.50
2022-11-28T01:28:48.774Z,-0.60
2022-11-28T01:31:19.556Z,-0.62
2022-11-28T01:33:46.765Z,-0.68
2022-11-28T01:36:15.241Z,-0.60
2022-11-28T01:38:42.592Z,-0.60
2022-11-28T01:41:10.163Z,-0.60
2022-11-28T01:43:38.158Z,-0.60
2022-11-28T01:46:06.669Z,-0.54
2022-11-28T01:48:39.772Z,-0.50
2022-11-28T01:51:09.786Z,-0.50
2022-11-28T01:53:42.815Z,-0.40
2022-11-28T01:56:17.329Z,-0.40
2022-11-28T01:58:50.334Z,-0.40
2022-11-28T02:01:18.626Z,-0.40
2022-11-28T02:03:49.160Z,-0.36
2022-11-28T02:06:20.590Z,-0.30
2022-11-28T02:08:55.449Z,-0.30
2022-11-28T02:12:11.572Z,-0.30
2022-11-28T02:15:20.972Z,-0.30
2022-11-28T02:18:22.656Z,-0.20
2022-11-28T02:21:06.591Z,-0.20
2022-11-28T02:24:32.996Z,-0.20
2022-11-28T02:27:25.631Z,-0.16
2022-11-28T02:30:54.683Z,-0.10
2022-11-28T02:33:38.676Z,-0.10
2022-11-28T02:36:31.717Z,-0.10
2022-11-28T02:39:06.971Z,-0.10
2022-11-28T02:42:01.583Z,-0.10
2022-11-28T02:44:42.813Z,-0.04
2022-11-28T02:47:23.467Z,0.00
2022-11-28T02:50:21.241Z,0.00
2022-11-28T02:53:03.532Z,0.10
2022-11-28T02:55:30.799Z,0.20
2022-11-28T02:57:57.201Z,0.20
2022-11-28T03:00:36.914Z,0.20
2022-11-28T03:03:28.695Z,0.28
2022-11-28T03:06:09.727Z,0.30
2022-11-28T03:09:10.541Z,0.28
2022-11-28T03:12:19.915Z,0.30
2022-11-28T03:15:01.791Z,0.20
2022-11-28T03:18:00.554Z,0.20
2022-11-28T03:20:44.927Z,0.20
2022-11-28T03:23:17.863Z,0.30
2022-11-28T03:25:57.845Z,0.30
2022-11-28T03:28:39.275Z,0.20
2022-11-28T03:31:20.208Z,0.20
2022-11-28T03:33:58.190Z,0.10
2022-11-28T03:36:40.498Z,0.10
2022-11-28T03:39:14.573Z,0.10
2022-11-28T03:41:51.971Z,0.10
2022-11-28T03:44:27.948Z,0.10
2022-11-28T03:46:57.735Z,0.10
2022-11-28T03:49:35.993Z,0.10
2022-11-28T03:52:11.419Z,0.10
2022-11-28T03:54:49.596Z,0.20
2022-11-28T03:57:35.134Z,0.30
2022-11-28T04:00:12.864Z,0.40
2022-11-28T04:03:07.822Z,0.40
2022-11-28T04:05:47.128Z,0.48
2022-11-28T04:08:28.355Z,0.50
2022-11-28T04:11:14.640Z,0.50
2022-11-28T04:14:03.413Z,0.60
2022-11-28T04:16:54.434Z,0.66
2022-11-28T04:19:39.900Z,0.70
2022-11-28T04:22:24.232Z,0.80
2022-11-28T04:25:00.324Z,0.90
2022-11-28T04:27:38.769Z,0.90
2022-11-28T04:30:08.050Z,0.94
2022-11-28T04:32:42.204Z,1.00
2022-11-28T04:35:22.834Z,1.04
2022-11-28T04:37:51.936Z,1.10
2022-11-28T04:40:20.113Z,1.10
2022-11-28T04:42:57.748Z,1.20
2022-11-28T04:45:34.817Z,1.20
2022-11-28T04:48:02.497Z,1.30
2022-11-28T04:51:02.196Z,1.40
2022-11-28T04:53:49.867Z,1.50
2022-11-28T04:56:32.073Z,1.50
2022-11-28T04:59:00.829Z,1.50
2022-11-28T05:01:31.344Z,1.50
2022-11-28T05:03:57.967Z,1.50
2022-11-28T05:06:28.399Z,1.50
2022-11-28T05:08:55.195Z,1.50
2022-11-28T05:11:21.853Z,1.50
2022-11-28T05:13:48.329Z,1.60
2022-11-28T05:16:16.562Z,1.60
2022-11-28T05:18:44.107Z,1.56
2022-11-28T05:21:11.331Z,1.60
2022-11-28T05:23:40.917Z,1.60
2022-11-28T05:26:13.510Z,1.60
2022-11-28T05:28:43.496Z,1.70
2022-11-28T05:31:10.045Z,1.70
2022-11-28T05:33:36.585Z,1.70
2022-11-28T05:36:12.890Z,1.70
2022-11-28T05:38:40.878Z,1.70
2022-11-28T05:41:07.341Z,1.60
2022-11-28T05:43:34.229Z,1.60
2022-11-28T05:46:00.850Z,1.58
2022-11-28T05:48:27.324Z,1.60
2022-11-28T05:50:53.943Z,1.70
2022-11-28T05:53:20.460Z,1.70
2022-11-28T05:55:47.638Z,1.80
2022-11-28T05:58:14.786Z,1.80
2022-11-28T06:00:41.229Z,1.80
2022-11-28T06:03:07.815Z,1.80
2022-11-28T06:05:42.817Z,1.80
2022-11-28T06:08:12.567Z,1.80
2022-11-28T06:10:39.436Z,1.90
2022-11-28T06:13:06.084Z,1.90
2022-11-28T06:15:37.565Z,1.90
2022-11-28T06:18:05.087Z,1.82
2022-11-28T06:20:31.625Z,1.90
2022-11-28T06:22:57.990Z,1.90
2022-11-28T06:25:24.511Z,1.90
2022-11-28T06:27:50.883Z,1.80
2022-11-28T06:30:17.543Z,1.80
2022-11-28T06:32:44.017Z,1.90
2022-11-28T06:35:10.475Z,1.92
2022-11-28T06:37:36.968Z,2.00
2022-11-28T06:40:04.596Z,2.10
2022-11-28T06:42:31.227Z,2.10
2022-11-28T06:44:57.620Z,2.20
2022-11-28T06:47:24.008Z,2.20
2022-11-28T06:49:50.464Z,2.26
2022-11-28T06:52:16.836Z,2.30
2022-11-28T06:54:44.479Z,2.30
2022-11-28T06:57:11.274Z,2.30
2022-11-28T06:59:37.641Z,2.36
2022-11-28T07:02:07.785Z,2.40
2022-11-28T07:04:34.748Z,2.44
2022-11-28T07:07:01.143Z,2.50
2022-11-28T07:09:27.774Z,2.50
2022-11-28T07:11:54.288Z,2.50
2022-11-28T07:14:20.929Z,2.58
2022-11-28T07:16:49.059Z,2.60
2022-11-28T07:19:16.402Z,2.60
2022-11-28T07:21:42.803Z,2.60
2022-11-28T07:24:09.334Z,2.60
2022-11-28T07:26:37.898Z,2.60
2022-11-28T07:29:06.849Z,2.60
2022-11-28T07:31:34.142Z,2.70
2022-11-28T07:34:03.399Z,2.70
2022-11-28T07:36:30.514Z,2.80
2022-11-28T07:39:02.472Z,2.80
2022-11-28T07:41:29.052Z,2.90
2022-11-28T07:43:59.024Z,2.90
2022-11-28T07:46:27.973Z,2.90
2022-11-28T07:48:55.000Z,3.00
2022-11-28T07:51:29.818Z,3.00
2022-11-28T07:53:56.732Z,3.10
2022-11-28T07:56:39.579Z,3.10
2022-11-28T07:59:11.228Z,3.20
2022-11-28T08:01:38.438Z,3.20
2022-11-28T08:04:08.771Z,3.28
2022-11-28T08:06:43.337Z,3.30
2022-11-28T08:09:12.270Z,3.32
2022-11-28T08:11:39.156Z,3.40
2022-11-28T08:14:05.846Z,3.34
2022-11-28T08:16:32.842Z,3.40
2022-11-28T08:19:03.241Z,3.40
2022-11-28T08:21:33.276Z,3.50
2022-11-28T08:24:02.471Z,3.60
2022-11-28T08:26:31.369Z,3.50
2022-11-28T08:28:59.492Z,3.50
2022-11-28T08:31:38.346Z,3.50
2022-11-28T08:34:09.319Z,3.50
2022-11-28T08:36:35.880Z,3.50
2022-11-28T08:41:51.459Z,3.50
2022-11-28T08:44:17.898Z,3.52
2022-11-28T08:46:44.317Z,3.60
2022-11-28T08:49:11.027Z,3.62
2022-11-28T08:51:37.513Z,3.70
2022-11-28T08:54:04.301Z,3.70
2022-11-28T08:56:30.767Z,3.70
2022-11-28T08:58:57.139Z,3.74
2022-11-28T09:01:26.635Z,3.80
2022-11-28T09:03:55.484Z,3.80
2022-11-28T09:06:23.954Z,3.90
2022-11-28T09:08:52.313Z,3.92
2022-11-28T09:11:21.484Z,4.02
2022-11-28T09:13:48.193Z,4.10
2022-11-28T09:16:15.680Z,4.10
2022-11-28T09:18:42.579Z,4.10
2022-11-28T09:21:13.015Z,4.10
2022-11-28T09:23:41.302Z,4.20
2022-11-28T09:26:20.703Z,4.30
2022-11-28T09:28:47.946Z,4.32
2022-11-28T09:31:17.288Z,4.40
2022-11-28T09:33:46.038Z,4.44
2022-11-28T09:36:17.232Z,4.50
2022-11-28T09:38:43.884Z,4.60
2022-11-28T09:41:28.504Z,4.70
2022-11-28T09:44:24.129Z,4.70
2022-11-28T09:46:56.890Z,4.80
2022-11-28T09:49:41.016Z,4.80
2022-11-28T09:52:41.478Z,4.86
2022-11-28T09:55:35.671Z,4.90
2022-11-28T09:58:15.388Z,4.90
2022-11-28T10:00:56.003Z,5.00
2022-11-28T10:03:42.305Z,5.00
2022-11-28T10:06:31.183Z,5.10
2022-11-28T10:09:14.963Z,5.10
2022-11-28T10:12:15.940Z,5.20
2022-11-28T10:15:18.333Z,5.30
2022-11-28T10:18:41.708Z,5.40
2022-11-28T10:21:31.273Z,5.40
2022-11-28T10:24:10.501Z,5.30
2022-11-28T10:26:41.226Z,5.30
2022-11-28T10:29:22.830Z,5.40
2022-11-28T10:31:58.819Z,5.40
2022-11-28T10:34:45.348Z,5.40
2022-11-28T10:37:30.993Z,5.50
2022-11-28T10:40:20.021Z,5.58
2022-11-28T10:43:21.006Z,5.52
2022-11-28T10:46:23.100Z,5.52
2022-11-28T10:49:38.388Z,5.50
2022-11-28T10:52:23.924Z,5.60
2022-11-28T10:55:21.329Z,5.54
2022-11-28T10:58:09.527Z,5.58
2022-11-28T11:00:38.179Z,5.56
2022-11-28T11:03:06.013Z,5.50
2022-11-28T11:05:35.835Z,5.50
2022-11-28T11:08:29.659Z,5.54
2022-11-28T11:11:29.339Z,5.50
2022-11-28T11:14:02.860Z,5.50
2022-11-28T11:16:52.091Z,5.50
2022-11-28T11:19:37.064Z,5.50
2022-11-28T11:22:19.034Z,5.40
2022-11-28T11:25:05.667Z,5.30
2022-11-28T11:27:34.936Z,5.30
2022-11-28T11:30:18.411Z,5.30
2022-11-28T11:32:51.420Z,5.30
2022-11-28T11:35:27.110Z,5.32
2022-11-28T11:38:20.065Z,5.30
2022-11-28T11:40:48.208Z,5.20
2022-11-28T11:43:30.119Z,5.12
2022-11-28T11:46:07.412Z,5.00
2022-11-28T11:48:42.210Z,4.90
2022-11-28T11:51:39.393Z,4.90
2022-11-28T11:54:19.155Z,4.90
2022-11-28T11:56:53.544Z,4.88
2022-11-28T12:00:04.629Z,4.88
2022-11-28T12:02:56.528Z,4.80
2022-11-28T12:06:06.187Z,4.80
2022-11-28T12:08:36.112Z,4.76
2022-11-28T12:11:17.764Z,4.72
2022-11-28T12:13:44.762Z,4.80
2022-11-28T12:16:33.322Z,4.80
2022-11-28T12:19:43.944Z,4.72
2022-11-28T12:22:27.089Z,4.70
2022-11-28T12:25:18.451Z,4.70
2022-11-28T12:28:14.505Z,4.62
2022-11-28T12:31:22.598Z,4.60
2022-11-28T12:34:01.102Z,4.56
2022-11-28T12:36:57.366Z,4.50
2022-11-28T12:39:48.445Z,4.50
2022-11-28T12:43:05.509Z,4.54
2022-11-28T12:45:46.927Z,4.60
2022-11-28T12:48:30.479Z,4.60
2022-11-28T12:51:40.591Z,4.60
2022-11-28T12:54:26.159Z,4.60
2022-11-28T12:57:11.137Z,4.60
2022-11-28T13:00:08.074Z,4.56
2022-11-28T13:03:16.111Z,4.50
2022-11-28T13:06:20.056Z,4.58
2022-11-28T13:09:32.736Z,4.58
2022-11-28T13:12:41.901Z,4.56
2022-11-28T13:15:53.623Z,4.50
2022-11-28T13:18:39.453Z,4.50
2022-11-28T13:21:38.948Z,4.40
2022-11-28T13:24:48.279Z,4.30
2022-11-28T13:27:27.545Z,4.20
2022-11-28T13:30:18.156Z,4.20
2022-11-28T13:32:57.639Z,4.10
2022-11-28T13:35:24.995Z,4.08
2022-11-28T13:38:41.708Z,4.00
2022-11-28T13:42:05.904Z,4.00
2022-11-28T13:44:19.794Z,3.98
2022-11-28T13:46:46.934Z,3.90
2022-11-28T13:49:26.657Z,3.80
2022-11-28T13:52:32.700Z,3.80
2022-11-28T13:54:59.152Z,3.70
2022-11-28T13:57:38.411Z,3.70
2022-11-28T14:00:25.312Z,3.70
2022-11-28T14:02:55.948Z,3.70
2022-11-28T14:05:41.484Z,3.60
2022-11-28T14:08:21.918Z,3.60
2022-11-28T14:11:34.107Z,3.52
2022-11-28T14:14:21.540Z,3.50
2022-11-28T14:17:00.456Z,3.50
2022-11-28T14:20:05.194Z,3.50
2022-11-28T14:23:01.360Z,3.50
2022-11-28T14:25:33.508Z,3.50
2022-11-28T14:28:04.940Z,3.50
2022-11-28T14:30:41.006Z,3.40
2022-11-28T14:33:40.072Z,3.40
2022-11-28T14:36:22.769Z,3.40
2022-11-28T14:39:05.306Z,3.40
2022-11-28T14:41:31.885Z,3.40
2022-11-28T14:44:45.991Z,3.40
2022-11-28T14:47:21.184Z,3.40
2022-11-28T14:49:49.232Z,3.40
2022-11-28T14:52:38.875Z,3.40
2022-11-28T14:55:21.358Z,3.40
2022-11-28T14:57:59.763Z,3.40
2022-11-28T15:00:49.843Z,3.40
2022-11-28T15:03:58.478Z,3.40
2022-11-28T15:06:36.547Z,3.40
2022-11-28T15:09:30.818Z,3.40
2022-11-28T15:12:49.012Z,3.40
2022-11-28T15:15:17.531Z,3.40
2022-11-28T15:17:51.298Z,3.40
2022-11-28T15:20:29.053Z,3.38
2022-11-28T15:22:55.570Z,3.32
2022-11-28T15:25:27.107Z,3.30
2022-11-28T15:27:55.346Z,3.30
2022-11-28T15:30:26.663Z,3.30
2022-11-28T15:33:00.110Z,3.36
2022-11-28T15:35:28.408Z,3.40
2022-11-28T15:37:58.315Z,3.40
2022-11-28T15:40:36.522Z,3.40
2022-11-28T15:43:09.588Z,3.40
2022-11-28T15:45:42.134Z,3.40
2022-11-28T15:48:37.666Z,3.40
2022-11-28T15:51:07.388Z,3.40
2022-11-28T15:53:33.764Z,3.40
2022-11-28T15:56:14.611Z,3.40
2022-11-28T15:58:44.346Z,3.32
2022-11-28T16:01:28.073Z,3.30
2022-11-28T16:04:05.268Z,3.40
2022-11-28T16:06:36.848Z,3.36
2022-11-28T16:09:17.087Z,3.32
2022-11-28T16:11:48.013Z,3.30
2022-11-28T16:14:43.578Z,3.30
2022-11-28T16:17:20.550Z,3.30
2022-11-28T16:19:52.472Z,3.30
2022-11-28T16:22:22.150Z,3.30
2022-11-28T16:24:52.255Z,3.30
2022-11-28T16:27:35.269Z,3.30
2022-11-28T16:30:23.903Z,3.30
2022-11-28T16:32:53.131Z,3.30
2022-11-28T16:35:40.457Z,3.30
2022-11-28T16:38:25.124Z,3.30
2022-11-28T16:40:59.623Z,3.30
2022-11-28T16:43:35.231Z,3.30
2022-11-28T16:46:06.850Z,3.30
2022-11-28T16:48:46.648Z,3.30
2022-11-28T16:51:13.213Z,3.28
2022-11-28T16:53:51.190Z,3.22
2022-11-28T16:56:29.601Z,3.22
2022-11-28T16:59:18.793Z,3.30
2022-11-28T17:01:52.807Z,3.30
2022-11-28T17:04:27.661Z,3.30
2022-11-28T17:06:58.536Z,3.30
2022-11-28T17:09:25.176Z,3.22
2022-11-28T17:11:58.948Z,3.20
2022-11-28T17:14:25.573Z,3.20
2022-11-28T17:16:52.108Z,3.20
2022-11-28T17:19:18.515Z,3.20
2022-11-28T17:21:52.480Z,3.20
2022-11-28T17:24:26.630Z,3.20
2022-11-28T17:26:54.855Z,3.20
2022-11-28T17:29:22.816Z,3.20
2022-11-28T17:31:50.179Z,3.16
2022-11-28T17:34:35.120Z,3.10
2022-11-28T17:37:02.934Z,3.06
2022-11-28T17:39:29.760Z,3.00
2022-11-28T17:41:57.605Z,3.00
2022-11-28T17:44:31.396Z,2.90
2022-11-28T17:47:00.444Z,2.90
2022-11-28T17:49:28.109Z,3.00
2022-11-28T17:51:56.565Z,3.00
2022-11-28T17:54:25.082Z,3.00
2022-11-28T17:56:52.956Z,3.04
2022-11-28T17:59:23.422Z,3.02
2022-11-28T18:01:50.977Z,3.04
2022-11-28T18:04:17.772Z,3.04
2022-11-28T18:06:47.167Z,3.00
2022-11-28T18:09:14.329Z,3.00
2022-11-28T18:11:42.525Z,3.00
2022-11-28T18:14:09.535Z,3.00
2022-11-28T18:16:36.302Z,3.00
2022-11-28T18:19:04.138Z,3.10
2022-11-28T18:21:31.442Z,3.10
2022-11-28T18:23:57.939Z,3.10
2022-11-28T18:26:26.166Z,3.10
2022-11-28T18:28:53.866Z,3.02
2022-11-28T18:31:24.379Z,3.00
2022-11-28T18:33:55.115Z,3.00
2022-11-28T18:36:27.344Z,3.00
2022-11-28T18:39:00.098Z,3.00
2022-11-28T18:41:27.490Z,3.00
2022-11-28T18:44:04.585Z,3.00
2022-11-28T18:46:32.595Z,3.00
2022-11-28T18:48:59.193Z,3.00
2022-11-28T18:51:35.255Z,3.00
2022-11-28T18:54:05.131Z,2.90
2022-11-28T18:56:32.040Z,2.90
2022-11-28T18:58:59.349Z,2.90
2022-11-28T19:01:32.605Z,2.90
2022-11-28T19:04:03.970Z,2.90
2022-11-28T19:06:31.762Z,2.90
2022-11-28T19:09:01.393Z,2.90
2022-11-28T19:11:29.405Z,2.98
2022-11-28T19:13:56.303Z,3.00
2022-11-28T19:16:29.707Z,3.00
2022-11-28T19:18:57.462Z,2.90
2022-11-28T19:21:28.051Z,2.90
2022-11-28T19:23:56.141Z,2.90
2022-11-28T19:26:25.892Z,2.90
2022-11-28T19:28:52.607Z,2.90
2022-11-28T19:31:28.926Z,2.90
2022-11-28T19:34:08.521Z,2.90
2022-11-28T19:36:41.050Z,2.90
2022-11-28T19:39:12.771Z,2.90
2022-11-28T19:41:39.164Z,2.90
2022-11-28T19:44:05.523Z,2.90
2022-11-28T19:46:35.352Z,2.90
2022-11-28T19:49:02.825Z,2.90
2022-11-28T19:51:29.268Z,2.90
2022-11-28T19:54:01.415Z,2.90
2022-11-28T19:56:29.741Z,2.90
2022-11-28T19:58:56.116Z,2.90
2022-11-28T20:01:24.366Z,2.90
2022-11-28T20:03:51.672Z,2.90
2022-11-28T20:06:26.380Z,2.88
2022-11-28T20:08:54.818Z,2.82
2022-11-28T20:11:26.046Z,2.80
2022-11-28T20:14:00.815Z,2.80
2022-11-28T20:16:30.469Z,2.70
2022-11-28T20:18:57.478Z,2.70
2022-11-28T20:21:23.880Z,2.70
2022-11-28T20:23:56.972Z,2.70
2022-11-28T20:26:26.830Z,2.70
2022-11-28T20:28:56.825Z,2.62
2022-11-28T20:31:30.961Z,2.60
2022-11-28T20:33:58.752Z,2.60
2022-11-28T20:36:27.783Z,2.60
2022-11-28T20:38:56.292Z,2.60
2022-11-28T20:41:25.320Z,2.60
2022-11-28T20:43:52.273Z,2.62
2022-11-28T20:46:30.054Z,2.60
2022-11-28T20:49:00.560Z,2.60
2022-11-28T20:51:31.503Z,2.50
2022-11-28T20:53:59.663Z,2.40
2022-11-28T20:56:29.677Z,2.40
2022-11-28T20:59:00.699Z,2.30
2022-11-28T21:01:35.416Z,2.28
2022-11-28T21:04:04.517Z,2.20
2022-11-28T21:06:31.449Z,2.20
2022-11-28T21:08:57.977Z,2.10
2022-11-28T21:11:50.500Z,2.02
2022-11-28T21:14:14.244Z,1.98
2022-11-28T21:16:41.672Z,1.90
2022-11-28T21:19:09.403Z,1.80
2022-11-28T21:21:39.840Z,1.72
2022-11-28T21:24:11.441Z,1.70
2022-11-28T21:26:44.218Z,1.70
2022-11-28T21:29:14.682Z,1.70
2022-11-28T21:31:44.537Z,1.62
2022-11-28T21:34:17.634Z,1.60
2022-11-28T21:36:45.430Z,1.60
2022-11-28T21:39:15.877Z,1.60
2022-11-28T21:41:42.820Z,1.60
2022-11-28T21:44:09.254Z,1.60
2022-11-28T21:46:35.781Z,1.60
2022-11-28T21:49:02.352Z,1.60
2022-11-28T21:51:29.165Z,1.64
2022-11-28T21:53:57.283Z,1.66
2022-11-28T21:56:24.494Z,1.70
2022-11-28T21:58:51.174Z,1.70
2022-11-28T22:01:17.991Z,1.70
2022-11-28T22:03:44.641Z,1.70
2022-11-28T22:06:18.021Z,1.70
2022-11-28T22:08:45.400Z,1.70
2022-11-28T22:11:13.239Z,1.70
2022-11-28T22:13:42.337Z,1.70
2022-11-28T22:16:22.544Z,1.70
2022-11-28T22:18:51.576Z,1.64
2022-11-28T22:24:05.812Z,1.70
2022-11-28T22:26:32.831Z,1.70
2022-11-28T22:28:59.395Z,1.80
2022-11-28T22:31:25.911Z,1.80
2022-11-28T22:33:52.612Z,1.80
2022-11-28T22:36:21.098Z,1.80
2022-11-28T22:38:54.985Z,1.80
2022-11-28T22:41:28.258Z,1.80
2022-11-28T22:43:56.771Z,1.74
2022-11-28T22:46:23.328Z,1.80
2022-11-28T22:48:51.076Z,1.80
2022-11-28T22:51:23.560Z,1.80
2022-11-28T22:53:58.807Z,1.80
2022-11-28T22:56:26.412Z,1.90
2022-11-28T22:58:52.931Z,1.90
2022-11-28T23:01:24.202Z,1.90
2022-11-28T23:03:51.673Z,1.80
2022-11-28T23:06:27.287Z,1.80
2022-11-28T23:08:55.786Z,1.86
2022-11-28T23:11:25.402Z,1.90
2022-11-28T23:13:53.220Z,1.90
2022-11-28T23:16:27.353Z,1.90
2022-11-28T23:18:58.266Z,1.90
2022-11-28T23:21:28.465Z,1.90
2022-11-28T23:23:54.980Z,2.00
2022-11-28T23:26:25.746Z,2.00
2022-11-28T23:28:52.772Z,2.00
2022-11-28T23:31:29.180Z,2.00
2022-11-28T23:33:57.066Z,1.90
2022-11-28T23:36:27.203Z,1.90
2022-11-28T23:38:57.523Z,1.90
2022-11-28T23:41:24.845Z,1.90
2022-11-28T23:43:51.346Z,1.84
2022-11-28T23:46:19.785Z,1.88
2022-11-28T23:48:47.219Z,1.90
2022-11-28T23:51:16.215Z,1.90
2022-11-28T23:53:44.104Z,1.90
2022-11-28T23:56:21.686Z,1.90
2022-11-28T23:58:48.933Z,1.90
